sensor_id;sensor_type;location;lat;lon;timestamp;temperature;humidity
65989;HTU21D;53592;51.402;6.054;2023-06-10T00:01:32;23.95;49.08
65989;HTU21D;53592;51.402;6.054;2023-06-10T00:03:59;23.89;49.18
65989;HTU21D;53592;51.402;6.054;2023-06-10T00:06:25;23.86;49.18
65989;HTU21D;53592;51.402;6.054;2023-06-10T00:08:51;23.80;49.37
65989;HTU21D;53592;51.402;6.054;2023-06-10T00:11:16;23.75;49.47
65989;HTU21D;53592;51.402;6.054;2023-06-10T00:13:42;23.72;49.60
65989;HTU21D;53592;51.402;6.054;2023-06-10T00:16:08;23.66;49.69
65989;HTU21D;53592;51.402;6.054;2023-06-10T00:18:33;23.64;49.55
65989;HTU21D;53592;51.402;6.054;2023-06-10T00:21:02;23.58;49.78
65989;HTU21D;53592;51.402;6.054;2023-06-10T00:23:30;23.54;49.95
65989;HTU21D;53592;51.402;6.054;2023-06-10T00:26:02;23.49;49.95
65989;HTU21D;53592;51.402;6.054;2023-06-10T00:28:28;23.41;50.13
65989;HTU21D;53592;51.402;6.054;2023-06-10T00:30:53;23.39;50.21
65989;HTU21D;53592;51.402;6.054;2023-06-10T00:33:19;23.32;50.45
65989;HTU21D;53592;51.402;6.054;2023-06-10T00:35:44;23.28;50.54
65989;HTU21D;53592;51.402;6.054;2023-06-10T00:38:10;23.23;50.68
65989;HTU21D;53592;51.402;6.054;2023-06-10T00:40:39;23.16;50.98
65989;HTU21D;53592;51.402;6.054;2023-06-10T00:43:06;23.12;51.17
65989;HTU21D;53592;51.402;6.054;2023-06-10T00:45:33;23.06;51.23
65989;HTU21D;53592;51.402;6.054;2023-06-10T00:48:00;23.00;51.41
65989;HTU21D;53592;51.402;6.054;2023-06-10T00:50:28;22.96;51.66
65989;HTU21D;53592;51.402;6.054;2023-06-10T00:52:55;22.88;51.85
65989;HTU21D;53592;51.402;6.054;2023-06-10T00:55:21;22.80;52.01
65989;HTU21D;53592;51.402;6.054;2023-06-10T00:57:47;22.73;52.17
65989;HTU21D;53592;51.402;6.054;2023-06-10T01:00:14;22.69;52.30
65989;HTU21D;53592;51.402;6.054;2023-06-10T01:02:41;22.63;52.59
65989;HTU21D;53592;51.402;6.054;2023-06-10T01:05:08;22.60;52.69
65989;HTU21D;53592;51.402;6.054;2023-06-10T01:07:45;22.53;52.88
65989;HTU21D;53592;51.402;6.054;2023-06-10T01:12:49;22.41;53.66
65989;HTU21D;53592;51.402;6.054;2023-06-10T01:15:18;22.34;53.88
65989;HTU21D;53592;51.402;6.054;2023-06-10T01:18:12;22.28;53.84
65989;HTU21D;53592;51.402;6.054;2023-06-10T01:20:43;22.26;53.91
65989;HTU21D;53592;51.402;6.054;2023-06-10T01:23:10;22.24;54.12
65989;HTU21D;53592;51.402;6.054;2023-06-10T01:25:55;22.21;54.33
65989;HTU21D;53592;51.402;6.054;2023-06-10T01:28:31;22.18;54.68
65989;HTU21D;53592;51.402;6.054;2023-06-10T01:31:19;22.11;54.59
65989;HTU21D;53592;51.402;6.054;2023-06-10T01:33:52;22.06;54.84
65989;HTU21D;53592;51.402;6.054;2023-06-10T01:36:19;21.98;54.93
65989;HTU21D;53592;51.402;6.054;2023-06-10T01:38:47;21.96;55.04
65989;HTU21D;53592;51.402;6.054;2023-06-10T01:41:18;21.88;55.17
65989;HTU21D;53592;51.402;6.054;2023-06-10T01:43:47;21.78;55.44
65989;HTU21D;53592;51.402;6.054;2023-06-10T01:46:13;21.73;55.49
65989;HTU21D;53592;51.402;6.054;2023-06-10T01:48:41;21.68;55.59
65989;HTU21D;53592;51.402;6.054;2023-06-10T01:51:06;21.66;55.67
65989;HTU21D;53592;51.402;6.054;2023-06-10T01:53:32;21.63;55.73
65989;HTU21D;53592;51.402;6.054;2023-06-10T01:55:57;21.59;55.98
65989;HTU21D;53592;51.402;6.054;2023-06-10T01:58:23;21.58;56.00
65989;HTU21D;53592;51.402;6.054;2023-06-10T02:00:48;21.52;56.00
65989;HTU21D;53592;51.402;6.054;2023-06-10T02:03:14;21.47;56.11
65989;HTU21D;53592;51.402;6.054;2023-06-10T02:05:39;21.46;56.13
65989;HTU21D;53592;51.402;6.054;2023-06-10T02:08:05;21.43;56.19
65989;HTU21D;53592;51.402;6.054;2023-06-10T02:10:30;21.39;56.35
65989;HTU21D;53592;51.402;6.054;2023-06-10T02:12:56;21.35;56.46
65989;HTU21D;53592;51.402;6.054;2023-06-10T02:15:21;21.32;56.51
65989;HTU21D;53592;51.402;6.054;2023-06-10T02:17:47;21.29;56.55
65989;HTU21D;53592;51.402;6.054;2023-06-10T02:20:14;21.31;56.53
65989;HTU21D;53592;51.402;6.054;2023-06-10T02:22:40;21.34;56.51
65989;HTU21D;53592;51.402;6.054;2023-06-10T02:25:06;21.32;56.51
65989;HTU21D;53592;51.402;6.054;2023-06-10T02:27:31;21.29;56.58
65989;HTU21D;53592;51.402;6.054;2023-06-10T02:29:57;21.34;56.41
65989;HTU21D;53592;51.402;6.054;2023-06-10T02:32:23;21.31;56.39
65989;HTU21D;53592;51.402;6.054;2023-06-10T02:34:49;21.30;56.58
65989;HTU21D;53592;51.402;6.054;2023-06-10T02:37:15;21.27;56.70
65989;HTU21D;53592;51.402;6.054;2023-06-10T02:39:41;21.23;56.74
65989;HTU21D;53592;51.402;6.054;2023-06-10T02:42:07;21.21;56.77
65989;HTU21D;53592;51.402;6.054;2023-06-10T02:44:33;21.20;56.85
65989;HTU21D;53592;51.402;6.054;2023-06-10T02:46:59;21.20;57.00
65989;HTU21D;53592;51.402;6.054;2023-06-10T02:49:25;21.18;56.96
65989;HTU21D;53592;51.402;6.054;2023-06-10T02:51:53;21.15;57.24
65989;HTU21D;53592;51.402;6.054;2023-06-10T02:54:25;21.13;57.13
65989;HTU21D;53592;51.402;6.054;2023-06-10T02:56:52;21.08;57.26
65989;HTU21D;53592;51.402;6.054;2023-06-10T02:59:18;21.08;57.35
65989;HTU21D;53592;51.402;6.054;2023-06-10T03:01:44;21.05;57.41
65989;HTU21D;53592;51.402;6.054;2023-06-10T03:04:10;21.03;57.48
65989;HTU21D;53592;51.402;6.054;2023-06-10T03:06:39;21.00;57.81
65989;HTU21D;53592;51.402;6.054;2023-06-10T03:09:06;20.99;57.77
65989;HTU21D;53592;51.402;6.054;2023-06-10T03:11:35;20.98;57.91
65989;HTU21D;53592;51.402;6.054;2023-06-10T03:14:01;20.91;58.06
65989;HTU21D;53592;51.402;6.054;2023-06-10T03:16:26;20.85;58.48
65989;HTU21D;53592;51.402;6.054;2023-06-10T03:18:52;20.75;58.73
65989;HTU21D;53592;51.402;6.054;2023-06-10T03:21:18;20.71;59.12
65989;HTU21D;53592;51.402;6.054;2023-06-10T03:23:44;20.63;59.33
65989;HTU21D;53592;51.402;6.054;2023-06-10T03:26:10;20.63;59.42
65989;HTU21D;53592;51.402;6.054;2023-06-10T03:28:37;20.61;59.52
65989;HTU21D;53592;51.402;6.054;2023-06-10T03:31:03;20.61;59.51
65989;HTU21D;53592;51.402;6.054;2023-06-10T03:33:28;20.61;59.58
65989;HTU21D;53592;51.402;6.054;2023-06-10T03:35:54;20.59;59.56
65989;HTU21D;53592;51.402;6.054;2023-06-10T03:38:19;20.58;59.58
65989;HTU21D;53592;51.402;6.054;2023-06-10T03:40:45;20.55;59.66
65989;HTU21D;53592;51.402;6.054;2023-06-10T03:43:11;20.56;59.76
65989;HTU21D;53592;51.402;6.054;2023-06-10T03:45:36;20.51;59.86
65989;HTU21D;53592;51.402;6.054;2023-06-10T03:48:02;20.48;60.03
65989;HTU21D;53592;51.402;6.054;2023-06-10T03:50:28;20.48;60.00
65989;HTU21D;53592;51.402;6.054;2023-06-10T03:52:54;20.48;60.06
65989;HTU21D;53592;51.402;6.054;2023-06-10T03:55:19;20.49;60.05
65989;HTU21D;53592;51.402;6.054;2023-06-10T03:57:47;20.49;60.22
65989;HTU21D;53592;51.402;6.054;2023-06-10T04:00:14;20.48;60.20
65989;HTU21D;53592;51.402;6.054;2023-06-10T04:02:40;20.45;60.43
65989;HTU21D;53592;51.402;6.054;2023-06-10T04:05:17;20.43;60.57
65989;HTU21D;53592;51.402;6.054;2023-06-10T04:07:44;20.45;60.67
65989;HTU21D;53592;51.402;6.054;2023-06-10T04:10:10;20.43;60.83
65989;HTU21D;53592;51.402;6.054;2023-06-10T04:12:37;20.43;60.96
65989;HTU21D;53592;51.402;6.054;2023-06-10T04:15:04;20.44;60.93
65989;HTU21D;53592;51.402;6.054;2023-06-10T04:17:29;20.43;61.08
65989;HTU21D;53592;51.402;6.054;2023-06-10T04:19:55;20.47;61.05
65989;HTU21D;53592;51.402;6.054;2023-06-10T04:22:21;20.51;60.84
65989;HTU21D;53592;51.402;6.054;2023-06-10T04:24:46;20.55;60.87
65989;HTU21D;53592;51.402;6.054;2023-06-10T04:27:12;20.56;61.18
65989;HTU21D;53592;51.402;6.054;2023-06-10T04:29:37;20.58;61.25
65989;HTU21D;53592;51.402;6.054;2023-06-10T04:32:03;20.63;61.13
65989;HTU21D;53592;51.402;6.054;2023-06-10T04:34:30;20.65;61.19
65989;HTU21D;53592;51.402;6.054;2023-06-10T04:36:56;20.72;61.13
65989;HTU21D;53592;51.402;6.054;2023-06-10T04:42:58;20.85;60.93
65989;HTU21D;53592;51.402;6.054;2023-06-10T04:45:24;20.88;60.92
65989;HTU21D;53592;51.402;6.054;2023-06-10T04:47:49;20.89;61.07
65989;HTU21D;53592;51.402;6.054;2023-06-10T04:50:15;20.94;61.35
65989;HTU21D;53592;51.402;6.054;2023-06-10T04:52:41;21.02;61.38
65989;HTU21D;53592;51.402;6.054;2023-06-10T04:55:07;21.16;61.37
65989;HTU21D;53592;51.402;6.054;2023-06-10T04:57:32;21.28;61.14
65989;HTU21D;53592;51.402;6.054;2023-06-10T04:59:58;21.39;60.44
65989;HTU21D;53592;51.402;6.054;2023-06-10T05:02:23;21.57;60.27
65989;HTU21D;53592;51.402;6.054;2023-06-10T05:04:49;21.72;59.67
65989;HTU21D;53592;51.402;6.054;2023-06-10T05:07:14;21.91;59.28
65989;HTU21D;53592;51.402;6.054;2023-06-10T05:09:40;22.07;58.70
65989;HTU21D;53592;51.402;6.054;2023-06-10T05:12:06;22.25;58.45
65989;HTU21D;53592;51.402;6.054;2023-06-10T05:14:31;22.40;57.80
65989;HTU21D;53592;51.402;6.054;2023-06-10T05:16:57;22.62;57.33
65989;HTU21D;53592;51.402;6.054;2023-06-10T05:19:22;22.82;56.81
65989;HTU21D;53592;51.402;6.054;2023-06-10T05:21:48;23.02;56.00
65989;HTU21D;53592;51.402;6.054;2023-06-10T05:24:14;23.20;55.62
65989;HTU21D;53592;51.402;6.054;2023-06-10T05:26:39;23.32;55.33
65989;HTU21D;53592;51.402;6.054;2023-06-10T05:29:08;23.53;54.93
65989;HTU21D;53592;51.402;6.054;2023-06-10T05:31:37;23.71;54.05
65989;HTU21D;53592;51.402;6.054;2023-06-10T05:34:02;23.84;54.01
65989;HTU21D;53592;51.402;6.054;2023-06-10T05:36:28;24.02;53.08
65989;HTU21D;53592;51.402;6.054;2023-06-10T05:38:53;24.03;52.94
65989;HTU21D;53592;51.402;6.054;2023-06-10T05:41:19;24.18;52.70
65989;HTU21D;53592;51.402;6.054;2023-06-10T05:43:45;24.35;52.16
65989;HTU21D;53592;51.402;6.054;2023-06-10T05:46:11;24.54;51.65
65989;HTU21D;53592;51.402;6.054;2023-06-10T05:48:36;24.76;50.74
65989;HTU21D;53592;51.402;6.054;2023-06-10T05:51:01;24.94;50.30
65989;HTU21D;53592;51.402;6.054;2023-06-10T05:53:27;25.08;49.63
65989;HTU21D;53592;51.402;6.054;2023-06-10T05:55:52;25.14;49.45
65989;HTU21D;53592;51.402;6.054;2023-06-10T05:58:23;25.29;49.58
65989;HTU21D;53592;51.402;6.054;2023-06-10T06:00:49;25.44;48.95
65989;HTU21D;53592;51.402;6.054;2023-06-10T06:03:14;25.51;48.47
65989;HTU21D;53592;51.402;6.054;2023-06-10T06:05:40;25.61;48.15
65989;HTU21D;53592;51.402;6.054;2023-06-10T06:08:06;25.80;47.34
65989;HTU21D;53592;51.402;6.054;2023-06-10T06:10:31;25.91;46.81
65989;HTU21D;53592;51.402;6.054;2023-06-10T06:12:58;26.06;47.18
65989;HTU21D;53592;51.402;6.054;2023-06-10T06:15:23;26.27;46.79
65989;HTU21D;53592;51.402;6.054;2023-06-10T06:17:49;26.37;46.26
65989;HTU21D;53592;51.402;6.054;2023-06-10T06:20:21;26.53;44.84
65989;HTU21D;53592;51.402;6.054;2023-06-10T06:22:46;26.61;44.45
65989;HTU21D;53592;51.402;6.054;2023-06-10T06:25:12;26.69;44.25
65989;HTU21D;53592;51.402;6.054;2023-06-10T06:27:38;26.83;44.45
65989;HTU21D;53592;51.402;6.054;2023-06-10T06:30:03;26.96;44.23
65989;HTU21D;53592;51.402;6.054;2023-06-10T06:32:29;27.15;43.73
65989;HTU21D;53592;51.402;6.054;2023-06-10T06:34:55;27.30;42.77
65989;HTU21D;53592;51.402;6.054;2023-06-10T06:37:24;27.40;42.73
65989;HTU21D;53592;51.402;6.054;2023-06-10T06:39:51;27.61;43.02
65989;HTU21D;53592;51.402;6.054;2023-06-10T06:42:16;27.76;42.16
65989;HTU21D;53592;51.402;6.054;2023-06-10T06:44:42;27.93;41.84
65989;HTU21D;53592;51.402;6.054;2023-06-10T06:47:08;28.04;40.94
65989;HTU21D;53592;51.402;6.054;2023-06-10T06:49:34;28.24;41.65
65989;HTU21D;53592;51.402;6.054;2023-06-10T06:51:59;28.40;40.42
65989;HTU21D;53592;51.402;6.054;2023-06-10T06:54:25;28.49;40.11
65989;HTU21D;53592;51.402;6.054;2023-06-10T06:56:50;28.58;39.50
65989;HTU21D;53592;51.402;6.054;2023-06-10T06:59:16;28.61;39.20
65989;HTU21D;53592;51.402;6.054;2023-06-10T07:01:44;28.71;39.34
65989;HTU21D;53592;51.402;6.054;2023-06-10T07:04:10;28.78;38.49
65989;HTU21D;53592;51.402;6.054;2023-06-10T07:06:35;28.85;38.27
65989;HTU21D;53592;51.402;6.054;2023-06-10T07:09:01;28.97;38.18
65989;HTU21D;53592;51.402;6.054;2023-06-10T07:11:27;29.07;37.90
65989;HTU21D;53592;51.402;6.054;2023-06-10T07:13:52;29.24;38.71
65989;HTU21D;53592;51.402;6.054;2023-06-10T07:16:18;29.57;38.69
65989;HTU21D;53592;51.402;6.054;2023-06-10T07:18:46;29.95;37.19
65989;HTU21D;53592;51.402;6.054;2023-06-10T07:21:11;30.01;35.79
65989;HTU21D;53592;51.402;6.054;2023-06-10T07:23:37;30.11;37.33
65989;HTU21D;53592;51.402;6.054;2023-06-10T07:26:02;30.31;35.90
65989;HTU21D;53592;51.402;6.054;2023-06-10T07:28:28;30.38;35.73
65989;HTU21D;53592;51.402;6.054;2023-06-10T07:30:53;30.64;35.52
65989;HTU21D;53592;51.402;6.054;2023-06-10T07:33:18;30.64;35.14
65989;HTU21D;53592;51.402;6.054;2023-06-10T07:35:44;30.83;35.42
65989;HTU21D;53592;51.402;6.054;2023-06-10T07:38:09;30.98;34.05
65989;HTU21D;53592;51.402;6.054;2023-06-10T07:40:35;30.98;34.46
65989;HTU21D;53592;51.402;6.054;2023-06-10T07:43:01;31.26;34.41
65989;HTU21D;53592;51.402;6.054;2023-06-10T07:45:26;31.42;32.99
65989;HTU21D;53592;51.402;6.054;2023-06-10T07:47:52;31.87;34.79
65989;HTU21D;53592;51.402;6.054;2023-06-10T07:50:17;32.86;32.41
65989;HTU21D;53592;51.402;6.054;2023-06-10T07:52:43;33.63;32.35
65989;HTU21D;53592;51.402;6.054;2023-06-10T07:55:08;34.49;29.69
65989;HTU21D;53592;51.402;6.054;2023-06-10T07:57:34;35.23;31.38
65989;HTU21D;53592;51.402;6.054;2023-06-10T08:00:03;36.11;29.40
65989;HTU21D;53592;51.402;6.054;2023-06-10T08:02:29;36.62;27.16
65989;HTU21D;53592;51.402;6.054;2023-06-10T08:04:55;36.90;27.33
65989;HTU21D;53592;51.402;6.054;2023-06-10T08:07:21;37.23;25.13
65989;HTU21D;53592;51.402;6.054;2023-06-10T08:09:47;37.08;24.85
65989;HTU21D;53592;51.402;6.054;2023-06-10T08:12:13;37.22;25.85
65989;HTU21D;53592;51.402;6.054;2023-06-10T08:14:39;37.58;26.18
65989;HTU21D;53592;51.402;6.054;2023-06-10T08:17:05;37.91;24.92
65989;HTU21D;53592;51.402;6.054;2023-06-10T08:19:31;38.04;24.11
65989;HTU21D;53592;51.402;6.054;2023-06-10T08:21:57;37.96;22.78
65989;HTU21D;53592;51.402;6.054;2023-06-10T08:24:23;37.85;24.41
65989;HTU21D;53592;51.402;6.054;2023-06-10T08:26:48;38.12;24.07
65989;HTU21D;53592;51.402;6.054;2023-06-10T08:29:14;38.15;23.05
65989;HTU21D;53592;51.402;6.054;2023-06-10T08:31:43;38.07;23.31
65989;HTU21D;53592;51.402;6.054;2023-06-10T08:34:09;38.29;23.26
65989;HTU21D;53592;51.402;6.054;2023-06-10T08:36:35;38.41;22.86
65989;HTU21D;53592;51.402;6.054;2023-06-10T08:39:01;38.47;22.14
65989;HTU21D;53592;51.402;6.054;2023-06-10T08:41:30;38.59;21.63
65989;HTU21D;53592;51.402;6.054;2023-06-10T08:44:28;38.30;21.66
65989;HTU21D;53592;51.402;6.054;2023-06-10T08:46:56;38.28;23.32
65989;HTU21D;53592;51.402;6.054;2023-06-10T08:49:26;38.63;24.40
65989;HTU21D;53592;51.402;6.054;2023-06-10T08:51:58;38.84;22.11
65989;HTU21D;53592;51.402;6.054;2023-06-10T08:54:27;38.55;20.82
65989;HTU21D;53592;51.402;6.054;2023-06-10T08:56:55;38.15;21.28
65989;HTU21D;53592;51.402;6.054;2023-06-10T08:59:25;38.11;22.19
65989;HTU21D;53592;51.402;6.054;2023-06-10T09:01:52;38.14;21.98
65989;HTU21D;53592;51.402;6.054;2023-06-10T09:04:18;38.06;22.75
65989;HTU21D;53592;51.402;6.054;2023-06-10T09:06:45;38.04;21.23
65989;HTU21D;53592;51.402;6.054;2023-06-10T09:09:14;37.93;21.85
65989;HTU21D;53592;51.402;6.054;2023-06-10T09:11:42;37.78;22.62
65989;HTU21D;53592;51.402;6.054;2023-06-10T09:14:08;37.71;21.34
65989;HTU21D;53592;51.402;6.054;2023-06-10T09:16:34;37.67;23.41
65989;HTU21D;53592;51.402;6.054;2023-06-10T09:19:00;37.99;22.56
65989;HTU21D;53592;51.402;6.054;2023-06-10T09:21:25;38.11;20.60
65989;HTU21D;53592;51.402;6.054;2023-06-10T09:23:52;37.80;21.44
65989;HTU21D;53592;51.402;6.054;2023-06-10T09:26:17;37.67;21.70
65989;HTU21D;53592;51.402;6.054;2023-06-10T09:28:50;37.61;22.69
65989;HTU21D;53592;51.402;6.054;2023-06-10T09:31:16;37.52;21.21
65989;HTU21D;53592;51.402;6.054;2023-06-10T09:33:44;37.22;22.12
65989;HTU21D;53592;51.402;6.054;2023-06-10T09:36:10;37.32;21.85
65989;HTU21D;53592;51.402;6.054;2023-06-10T09:38:36;37.49;23.89
65989;HTU21D;53592;51.402;6.054;2023-06-10T09:41:03;37.50;26.49
65989;HTU21D;53592;51.402;6.054;2023-06-10T09:43:43;37.88;24.01
65989;HTU21D;53592;51.402;6.054;2023-06-10T09:48:41;37.76;25.35
65989;HTU21D;53592;51.402;6.054;2023-06-10T09:51:15;37.89;24.64
65989;HTU21D;53592;51.402;6.054;2023-06-10T09:53:42;38.19;24.87
65989;HTU21D;53592;51.402;6.054;2023-06-10T09:56:08;38.35;22.81
65989;HTU21D;53592;51.402;6.054;2023-06-10T09:58:37;38.22;21.46
65989;HTU21D;53592;51.402;6.054;2023-06-10T10:01:09;38.07;24.48
65989;HTU21D;53592;51.402;6.054;2023-06-10T10:03:46;38.33;24.60
65989;HTU21D;53592;51.402;6.054;2023-06-10T10:06:12;38.66;25.08
65989;HTU21D;53592;51.402;6.054;2023-06-10T10:08:38;38.65;23.36
65989;HTU21D;53592;51.402;6.054;2023-06-10T10:11:04;38.78;24.30
65989;HTU21D;53592;51.402;6.054;2023-06-10T10:13:33;39.05;24.35
65989;HTU21D;53592;51.402;6.054;2023-06-10T10:16:04;39.23;21.40
65989;HTU21D;53592;51.402;6.054;2023-06-10T10:18:32;38.96;22.50
65989;HTU21D;53592;51.402;6.054;2023-06-10T10:21:01;38.76;20.92
65989;HTU21D;53592;51.402;6.054;2023-06-10T10:23:36;38.40;20.68
65989;HTU21D;53592;51.402;6.054;2023-06-10T10:26:09;38.19;22.72
65989;HTU21D;53592;51.402;6.054;2023-06-10T10:28:46;38.32;23.95
65989;HTU21D;53592;51.402;6.054;2023-06-10T10:31:16;38.36;22.85
65989;HTU21D;53592;51.402;6.054;2023-06-10T10:33:54;38.38;23.66
65989;HTU21D;53592;51.402;6.054;2023-06-10T10:36:22;38.60;22.66
65989;HTU21D;53592;51.402;6.054;2023-06-10T10:38:48;38.58;22.43
65989;HTU21D;53592;51.402;6.054;2023-06-10T10:41:15;38.37;21.12
65989;HTU21D;53592;51.402;6.054;2023-06-10T10:43:44;38.41;22.18
65989;HTU21D;53592;51.402;6.054;2023-06-10T10:46:16;38.44;21.03
65989;HTU21D;53592;51.402;6.054;2023-06-10T10:48:42;38.41;22.61
65989;HTU21D;53592;51.402;6.054;2023-06-10T10:51:09;38.41;21.25
65989;HTU21D;53592;51.402;6.054;2023-06-10T10:53:37;38.47;22.27
65989;HTU21D;53592;51.402;6.054;2023-06-10T10:56:08;38.60;21.21
65989;HTU21D;53592;51.402;6.054;2023-06-10T10:58:34;38.39;22.49
65989;HTU21D;53592;51.402;6.054;2023-06-10T11:01:10;38.33;21.42
65989;HTU21D;53592;51.402;6.054;2023-06-10T11:03:42;38.28;21.53
65989;HTU21D;53592;51.402;6.054;2023-06-10T11:06:17;38.32;21.95
65989;HTU21D;53592;51.402;6.054;2023-06-10T11:11:26;38.64;21.11
65989;HTU21D;53592;51.402;6.054;2023-06-10T11:16:29;38.35;22.00
65989;HTU21D;53592;51.402;6.054;2023-06-10T11:18:56;38.23;21.32
65989;HTU21D;53592;51.402;6.054;2023-06-10T11:21:25;38.00;20.45
65989;HTU21D;53592;51.402;6.054;2023-06-10T11:23:51;37.88;21.30
65989;HTU21D;53592;51.402;6.054;2023-06-10T11:26:29;37.97;21.05
65989;HTU21D;53592;51.402;6.054;2023-06-10T11:31:32;37.95;21.71
65989;HTU21D;53592;51.402;6.054;2023-06-10T11:34:04;37.99;20.93
65989;HTU21D;53592;51.402;6.054;2023-06-10T11:36:33;38.04;21.46
65989;HTU21D;53592;51.402;6.054;2023-06-10T11:39:05;38.16;20.69
65989;HTU21D;53592;51.402;6.054;2023-06-10T11:41:32;38.16;21.53
65989;HTU21D;53592;51.402;6.054;2023-06-10T11:44:11;38.17;19.88
65989;HTU21D;53592;51.402;6.054;2023-06-10T11:46:37;38.00;19.37
65989;HTU21D;53592;51.402;6.054;2023-06-10T11:49:04;37.78;19.53
65989;HTU21D;53592;51.402;6.054;2023-06-10T11:51:40;37.69;20.17
65989;HTU21D;53592;51.402;6.054;2023-06-10T11:54:09;37.51;20.54
65989;HTU21D;53592;51.402;6.054;2023-06-10T11:56:35;37.50;20.38
65989;HTU21D;53592;51.402;6.054;2023-06-10T11:59:03;37.54;20.06
65989;HTU21D;53592;51.402;6.054;2023-06-10T12:01:31;37.48;20.63
65989;HTU21D;53592;51.402;6.054;2023-06-10T12:04:20;37.69;19.35
65989;HTU21D;53592;51.402;6.054;2023-06-10T12:06:51;37.62;20.59
65989;HTU21D;53592;51.402;6.054;2023-06-10T12:09:26;37.75;20.60
65989;HTU21D;53592;51.402;6.054;2023-06-10T12:11:58;37.84;20.34
65989;HTU21D;53592;51.402;6.054;2023-06-10T12:14:56;37.84;18.99
65989;HTU21D;53592;51.402;6.054;2023-06-10T12:20:04;37.61;19.47
65989;HTU21D;53592;51.402;6.054;2023-06-10T12:22:43;37.52;19.37
65989;HTU21D;53592;51.402;6.054;2023-06-10T12:25:10;37.49;20.03
65989;HTU21D;53592;51.402;6.054;2023-06-10T12:27:37;37.45;19.86
65989;HTU21D;53592;51.402;6.054;2023-06-10T12:30:05;37.45;19.08
65989;HTU21D;53592;51.402;6.054;2023-06-10T12:35:07;37.23;19.45
65989;HTU21D;53592;51.402;6.054;2023-06-10T12:37:33;37.20;19.02
65989;HTU21D;53592;51.402;6.054;2023-06-10T12:40:01;37.26;18.80
65989;HTU21D;53592;51.402;6.054;2023-06-10T12:42:32;37.32;18.80
65989;HTU21D;53592;51.402;6.054;2023-06-10T12:44:59;37.33;18.64
65989;HTU21D;53592;51.402;6.054;2023-06-10T12:47:33;37.29;19.18
65989;HTU21D;53592;51.402;6.054;2023-06-10T12:50:00;37.37;19.22
65989;HTU21D;53592;51.402;6.054;2023-06-10T12:52:26;37.31;18.59
65989;HTU21D;53592;51.402;6.054;2023-06-10T12:54:53;37.15;19.01
65989;HTU21D;53592;51.402;6.054;2023-06-10T12:57:19;37.00;19.71
65989;HTU21D;53592;51.402;6.054;2023-06-10T12:59:45;36.99;20.39
65989;HTU21D;53592;51.402;6.054;2023-06-10T13:02:16;37.05;18.85
65989;HTU21D;53592;51.402;6.054;2023-06-10T13:04:45;37.08;19.15
65989;HTU21D;53592;51.402;6.054;2023-06-10T13:07:11;37.07;18.89
65989;HTU21D;53592;51.402;6.054;2023-06-10T13:09:36;37.22;19.09
65989;HTU21D;53592;51.402;6.054;2023-06-10T13:12:02;37.19;19.45
65989;HTU21D;53592;51.402;6.054;2023-06-10T13:14:28;37.36;19.16
65989;HTU21D;53592;51.402;6.054;2023-06-10T13:16:54;37.15;19.29
65989;HTU21D;53592;51.402;6.054;2023-06-10T13:19:21;36.95;19.54
65989;HTU21D;53592;51.402;6.054;2023-06-10T13:21:49;36.59;19.76
65989;HTU21D;53592;51.402;6.054;2023-06-10T13:24:15;36.26;19.89
65989;HTU21D;53592;51.402;6.054;2023-06-10T13:26:40;36.08;21.02
65989;HTU21D;53592;51.402;6.054;2023-06-10T13:29:06;35.98;21.18
65989;HTU21D;53592;51.402;6.054;2023-06-10T13:31:33;36.12;21.31
65989;HTU21D;53592;51.402;6.054;2023-06-10T13:33:59;36.14;20.90
65989;HTU21D;53592;51.402;6.054;2023-06-10T13:36:24;35.94;21.50
65989;HTU21D;53592;51.402;6.054;2023-06-10T13:38:50;35.75;21.38
65989;HTU21D;53592;51.402;6.054;2023-06-10T13:41:15;35.68;21.10
65989;HTU21D;53592;51.402;6.054;2023-06-10T13:43:41;35.53;21.58
65989;HTU21D;53592;51.402;6.054;2023-06-10T13:46:06;35.59;21.50
65989;HTU21D;53592;51.402;6.054;2023-06-10T13:48:32;35.69;21.97
65989;HTU21D;53592;51.402;6.054;2023-06-10T13:50:57;35.65;20.95
65989;HTU21D;53592;51.402;6.054;2023-06-10T13:53:24;35.63;21.03
65989;HTU21D;53592;51.402;6.054;2023-06-10T13:55:50;35.67;21.48
65989;HTU21D;53592;51.402;6.054;2023-06-10T13:58:16;35.58;21.00
65989;HTU21D;53592;51.402;6.054;2023-06-10T14:00:41;35.44;21.47
65989;HTU21D;53592;51.402;6.054;2023-06-10T14:03:06;35.50;21.53
65989;HTU21D;53592;51.402;6.054;2023-06-10T14:05:32;35.56;21.40
65989;HTU21D;53592;51.402;6.054;2023-06-10T14:07:58;35.57;21.39
65989;HTU21D;53592;51.402;6.054;2023-06-10T14:10:24;35.55;21.15
65989;HTU21D;53592;51.402;6.054;2023-06-10T14:12:50;35.41;21.44
65989;HTU21D;53592;51.402;6.054;2023-06-10T14:15:16;35.21;21.87
65989;HTU21D;53592;51.402;6.054;2023-06-10T14:17:43;34.98;22.38
65989;HTU21D;53592;51.402;6.054;2023-06-10T14:20:08;34.79;22.73
65989;HTU21D;53592;51.402;6.054;2023-06-10T14:22:34;34.50;22.40
65989;HTU21D;53592;51.402;6.054;2023-06-10T14:25:00;34.16;22.93
65989;HTU21D;53592;51.402;6.054;2023-06-10T14:27:25;33.83;22.79
65989;HTU21D;53592;51.402;6.054;2023-06-10T14:29:50;33.61;23.01
65989;HTU21D;53592;51.402;6.054;2023-06-10T14:32:16;33.40;23.72
65989;HTU21D;53592;51.402;6.054;2023-06-10T14:34:41;33.23;24.60
65989;HTU21D;53592;51.402;6.054;2023-06-10T14:37:09;33.22;24.63
65989;HTU21D;53592;51.402;6.054;2023-06-10T14:39:35;33.27;25.91
65989;HTU21D;53592;51.402;6.054;2023-06-10T14:42:01;33.45;25.55
65989;HTU21D;53592;51.402;6.054;2023-06-10T14:44:27;33.50;25.56
65989;HTU21D;53592;51.402;6.054;2023-06-10T14:46:52;33.57;24.71
65989;HTU21D;53592;51.402;6.054;2023-06-10T14:49:17;33.64;24.33
65989;HTU21D;53592;51.402;6.054;2023-06-10T14:51:43;33.71;24.15
65989;HTU21D;53592;51.402;6.054;2023-06-10T14:54:10;33.68;23.96
65989;HTU21D;53592;51.402;6.054;2023-06-10T14:56:35;0.00;24.35
65989;HTU21D;53592;51.402;6.054;2023-06-10T14:59:01;33.42;24.53
65989;HTU21D;53592;51.402;6.054;2023-06-10T15:01:26;33.30;25.29
65989;HTU21D;53592;51.402;6.054;2023-06-10T15:03:52;33.25;25.42
65989;HTU21D;53592;51.402;6.054;2023-06-10T15:06:17;33.23;24.97
65989;HTU21D;53592;51.402;6.054;2023-06-10T15:08:46;33.26;25.35
65989;HTU21D;53592;51.402;6.054;2023-06-10T15:11:14;33.36;24.53
65989;HTU21D;53592;51.402;6.054;2023-06-10T15:13:40;33.48;24.62
65989;HTU21D;53592;51.402;6.054;2023-06-10T15:16:05;33.65;24.62
65989;HTU21D;53592;51.402;6.054;2023-06-10T15:18:32;33.85;24.28
65989;HTU21D;53592;51.402;6.054;2023-06-10T15:20:57;34.05;24.18
65989;HTU21D;53592;51.402;6.054;2023-06-10T15:23:23;34.14;23.80
65989;HTU21D;53592;51.402;6.054;2023-06-10T15:25:48;34.15;23.53
65989;HTU21D;53592;51.402;6.054;2023-06-10T15:28:14;33.97;23.27
65989;HTU21D;53592;51.402;6.054;2023-06-10T15:30:39;33.80;23.97
65989;HTU21D;53592;51.402;6.054;2023-06-10T15:33:05;33.75;23.82
65989;HTU21D;53592;51.402;6.054;2023-06-10T15:35:32;33.62;24.23
65989;HTU21D;53592;51.402;6.054;2023-06-10T15:37:58;33.52;24.33